Ny info om parkering ved Klubbhytta PDF Skriv ut E-post
Skrevet av Per Norgaard   
torsdag 17. desember 2015 11:11

Styret i klubben ønsker å korrigere/presisere følgende: All parkering ved Klubbhytta skal kun skje ifm klubbaktivitet. Avinor vil ikke akseptere privat parkering som ikke er klubbrelatert. Misbruk vil utløse bøter, og kan medføre oppsigelse av leieforholdet.

 

 
«StartForrige12345678NesteSiste»

Side 8 av 8
 
METAR
2020/05/27 03:20 ENCN 270320Z AUTO 25004KT 9999 NCD 09/04 Q1031
TAF
2020/05/27 03:38 TAF ENCN 270200Z 2703/2712 VRB03KT 9999 FEW030 BECMG 2706/2708 34010KT
LN-KFK
Operativ VFR-natt
VFR dag
03:34 - 23:17
Brannvakt
Inaktiv
Banner
Banner
Banner
Banner
Banner